sensor_id;sensor_type;location;lat;lon;timestamp;pressure;altitude;pressure_sealevel;temperature;humidity
57068;BME280;43391;47.448;18.904;2022-08-19T00:02:01;99210.47;;;25.08;52.84
57068;BME280;43391;47.448;18.904;2022-08-19T00:04:28;99216.97;;;25.05;52.90
57068;BME280;43391;47.448;18.904;2022-08-19T00:06:54;99214.31;;;25.05;52.61
57068;BME280;43391;47.448;18.904;2022-08-19T00:09:20;99209.19;;;25.04;52.85
57068;BME280;43391;47.448;18.904;2022-08-19T00:11:45;99211.84;;;25.04;52.92
57068;BME280;43391;47.448;18.904;2022-08-19T00:14:12;99213.22;;;25.00;53.00
57068;BME280;43391;47.448;18.904;2022-08-19T00:16:38;99217.88;;;24.98;53.23
57068;BME280;43391;47.448;18.904;2022-08-19T00:19:04;99217.06;;;24.97;53.17
57068;BME280;43391;47.448;18.904;2022-08-19T00:21:29;99207.63;;;24.94;53.13
57068;BME280;43391;47.448;18.904;2022-08-19T00:23:55;99204.31;;;24.92;53.42
57068;BME280;43391;47.448;18.904;2022-08-19T00:26:23;99208.72;;;24.85;53.78
57068;BME280;43391;47.448;18.904;2022-08-19T00:28:48;99208.56;;;24.78;54.07
57068;BME280;43391;47.448;18.904;2022-08-19T00:31:13;99206.66;;;24.72;54.35
57068;BME280;43391;47.448;18.904;2022-08-19T00:33:39;99213.13;;;24.70;54.11
57068;BME280;43391;47.448;18.904;2022-08-19T00:36:06;99217.13;;;24.65;54.53
57068;BME280;43391;47.448;18.904;2022-08-19T00:38:32;99206.78;;;24.55;54.67
57068;BME280;43391;47.448;18.904;2022-08-19T00:40:57;99207.31;;;24.51;54.84
57068;BME280;43391;47.448;18.904;2022-08-19T00:43:24;99197.88;;;24.48;54.97
57068;BME280;43391;47.448;18.904;2022-08-19T00:45:51;99204.66;;;24.51;55.02
57068;BME280;43391;47.448;18.904;2022-08-19T00:48:16;99195.59;;;24.45;55.22
57068;BME280;43391;47.448;18.904;2022-08-19T00:50:43;99193.13;;;24.44;55.34
57068;BME280;43391;47.448;18.904;2022-08-19T00:53:12;99198.59;;;24.42;55.27
57068;BME280;43391;47.448;18.904;2022-08-19T00:55:40;99201.25;;;24.42;55.16
57068;BME280;43391;47.448;18.904;2022-08-19T00:58:08;99205.19;;;24.46;55.03
57068;BME280;43391;47.448;18.904;2022-08-19T01:00:35;99202.38;;;24.48;54.84
57068;BME280;43391;47.448;18.904;2022-08-19T01:03:02;99201.66;;;24.54;54.41
57068;BME280;43391;47.448;18.904;2022-08-19T01:05:27;99191.69;;;24.56;54.49
57068;BME280;43391;47.448;18.904;2022-08-19T01:07:54;99198.63;;;24.57;54.45
57068;BME280;43391;47.448;18.904;2022-08-19T01:10:22;99195.81;;;24.59;54.50
57068;BME280;43391;47.448;18.904;2022-08-19T01:12:49;99189.31;;;24.61;54.34
57068;BME280;43391;47.448;18.904;2022-08-19T01:15:15;99184.84;;;24.62;54.07
57068;BME280;43391;47.448;18.904;2022-08-19T01:17:42;99190.97;;;24.62;53.92
57068;BME280;43391;47.448;18.904;2022-08-19T01:20:13;99190.97;;;24.62;54.21
57068;BME280;43391;47.448;18.904;2022-08-19T01:25:12;99184.84;;;24.62;54.12
57068;BME280;43391;47.448;18.904;2022-08-19T01:27:38;99190.78;;;24.64;54.11
57068;BME280;43391;47.448;18.904;2022-08-19T01:30:04;99181.72;;;24.58;54.38
57068;BME280;43391;47.448;18.904;2022-08-19T01:32:30;99181.91;;;24.57;54.56
57068;BME280;43391;47.448;18.904;2022-08-19T01:34:56;99186.53;;;24.54;54.50
57068;BME280;43391;47.448;18.904;2022-08-19T01:37:21;99176.78;;;24.55;54.41
57068;BME280;43391;47.448;18.904;2022-08-19T01:39:46;99171.81;;;24.52;54.35
57068;BME280;43391;47.448;18.904;2022-08-19T01:42:11;99165.03;;;24.49;54.47
57068;BME280;43391;47.448;18.904;2022-08-19T01:44:38;99151.59;;;24.51;54.50
57068;BME280;43391;47.448;18.904;2022-08-19T01:47:05;99154.91;;;24.53;54.25
57068;BME280;43391;47.448;18.904;2022-08-19T01:49:31;99156.91;;;24.51;54.45
57068;BME280;43391;47.448;18.904;2022-08-19T01:51:56;99150.78;;;24.50;54.45
57068;BME280;43391;47.448;18.904;2022-08-19T01:54:22;99150.59;;;24.52;54.31
57068;BME280;43391;47.448;18.904;2022-08-19T01:56:48;99144.09;;;24.54;54.12
57068;BME280;43391;47.448;18.904;2022-08-19T01:59:16;99135.16;;;24.55;54.22
57068;BME280;43391;47.448;18.904;2022-08-19T02:01:42;99126.19;;;24.57;54.30
57068;BME280;43391;47.448;18.904;2022-08-19T02:04:07;99131.31;;;24.58;54.19
57068;BME280;43391;47.448;18.904;2022-08-19T02:06:33;99142.13;;;24.57;54.03
57068;BME280;43391;47.448;18.904;2022-08-19T02:08:58;99140.47;;;24.55;54.33
57068;BME280;43391;47.448;18.904;2022-08-19T02:11:25;99131.84;;;24.53;54.32
57068;BME280;43391;47.448;18.904;2022-08-19T02:13:52;99143.94;;;24.56;54.18
57068;BME280;43391;47.448;18.904;2022-08-19T02:16:18;99144.75;;;24.57;54.08
57068;BME280;43391;47.448;18.904;2022-08-19T02:18:43;99143.47;;;24.52;54.49
57068;BME280;43391;47.448;18.904;2022-08-19T02:21:09;99127.72;;;24.51;54.46
57068;BME280;43391;47.448;18.904;2022-08-19T02:23:34;99124.63;;;24.47;54.63
57068;BME280;43391;47.448;18.904;2022-08-19T02:25:59;99116.84;;;24.46;54.83
57068;BME280;43391;47.448;18.904;2022-08-19T02:28:24;99120.66;;;24.43;54.66
57068;BME280;43391;47.448;18.904;2022-08-19T02:30:50;99121.22;;;24.38;54.93
57068;BME280;43391;47.448;18.904;2022-08-19T02:33:15;99132.00;;;24.37;54.94
57068;BME280;43391;47.448;18.904;2022-08-19T02:35:44;99135.66;;;24.36;54.77
57068;BME280;43391;47.448;18.904;2022-08-19T02:38:10;99126.69;;;24.37;54.74
57068;BME280;43391;47.448;18.904;2022-08-19T02:40:57;99135.50;;;24.37;54.77
57068;BME280;43391;47.448;18.904;2022-08-19T02:43:22;99140.31;;;24.34;54.87
57068;BME280;43391;47.448;18.904;2022-08-19T02:45:48;99142.50;;;24.30;55.02
57068;BME280;43391;47.448;18.904;2022-08-19T02:48:17;99145.97;;;24.31;55.07
57068;BME280;43391;47.448;18.904;2022-08-19T02:50:43;99146.16;;;24.29;55.24
57068;BME280;43391;47.448;18.904;2022-08-19T02:53:09;99146.53;;;24.26;54.98
57068;BME280;43391;47.448;18.904;2022-08-19T02:55:34;99153.66;;;24.25;55.01
57068;BME280;43391;47.448;18.904;2022-08-19T02:57:59;99158.78;;;24.27;54.94
57068;BME280;43391;47.448;18.904;2022-08-19T03:00:25;99155.47;;;24.25;54.97
57068;BME280;43391;47.448;18.904;2022-08-19T03:02:51;99151.34;;;24.22;55.02
57068;BME280;43391;47.448;18.904;2022-08-19T03:05:16;99149.69;;;24.21;55.25
57068;BME280;43391;47.448;18.904;2022-08-19T03:07:42;99150.88;;;24.19;55.41
57068;BME280;43391;47.448;18.904;2022-08-19T03:10:07;99164.13;;;24.19;55.40
57068;BME280;43391;47.448;18.904;2022-08-19T03:12:35;99163.50;;;24.17;55.46
57068;BME280;43391;47.448;18.904;2022-08-19T03:15:00;99172.63;;;24.14;55.67
57068;BME280;43391;47.448;18.904;2022-08-19T03:17:25;99166.66;;;24.12;55.80
57068;BME280;43391;47.448;18.904;2022-08-19T03:19:51;99172.63;;;24.06;55.86
57068;BME280;43391;47.448;18.904;2022-08-19T03:22:16;99172.81;;;24.04;56.11
57068;BME280;43391;47.448;18.904;2022-08-19T03:24:41;99178.09;;;24.04;56.13
57068;BME280;43391;47.448;18.904;2022-08-19T03:27:08;99173.34;;;23.99;56.24
57068;BME280;43391;47.448;18.904;2022-08-19T03:29:33;99182.94;;;24.00;56.41
57068;BME280;43391;47.448;18.904;2022-08-19T03:32:03;99183.31;;;23.97;56.26
57068;BME280;43391;47.448;18.904;2022-08-19T03:34:29;99176.34;;;23.96;56.50
57068;BME280;43391;47.448;18.904;2022-08-19T03:36:56;99181.84;;;23.95;56.60
57068;BME280;43391;47.448;18.904;2022-08-19T03:39:22;99181.00;;;23.94;56.53
57068;BME280;43391;47.448;18.904;2022-08-19T03:41:48;99185.47;;;23.94;56.54
57068;BME280;43391;47.448;18.904;2022-08-19T03:44:16;99182.00;;;23.93;56.50
57068;BME280;43391;47.448;18.904;2022-08-19T03:46:42;99191.47;;;23.87;56.85
57068;BME280;43391;47.448;18.904;2022-08-19T03:49:08;99204.88;;;23.86;56.96
57068;BME280;43391;47.448;18.904;2022-08-19T03:51:37;99199.09;;;23.82;57.04
57068;BME280;43391;47.448;18.904;2022-08-19T03:54:03;99188.88;;;23.79;57.09
57068;BME280;43391;47.448;18.904;2022-08-19T03:56:29;99185.94;;;23.74;57.29
57068;BME280;43391;47.448;18.904;2022-08-19T03:58:57;99183.78;;;23.69;57.41
57068;BME280;43391;47.448;18.904;2022-08-19T04:01:25;99194.38;;;23.69;57.24
57068;BME280;43391;47.448;18.904;2022-08-19T04:03:51;99194.38;;;23.69;57.45
57068;BME280;43391;47.448;18.904;2022-08-19T04:06:21;99198.19;;;23.67;57.66
57068;BME280;43391;47.448;18.904;2022-08-19T04:08:48;99206.13;;;23.67;57.73
57068;BME280;43391;47.448;18.904;2022-08-19T04:11:15;99210.63;;;23.66;57.73
57068;BME280;43391;47.448;18.904;2022-08-19T04:13:41;99209.78;;;23.66;58.10
57068;BME280;43391;47.448;18.904;2022-08-19T04:16:08;99213.59;;;23.63;57.78
57068;BME280;43391;47.448;18.904;2022-08-19T04:18:35;99214.94;;;23.67;57.67
57068;BME280;43391;47.448;18.904;2022-08-19T04:21:01;99205.34;;;23.66;57.83
57068;BME280;43391;47.448;18.904;2022-08-19T04:23:27;99205.50;;;23.65;58.01
57068;BME280;43391;47.448;18.904;2022-08-19T04:25:53;99205.50;;;23.65;58.04
57068;BME280;43391;47.448;18.904;2022-08-19T04:28:18;99206.50;;;23.64;58.12
57068;BME280;43391;47.448;18.904;2022-08-19T04:30:47;99217.09;;;23.64;58.16
57068;BME280;43391;47.448;18.904;2022-08-19T04:33:14;99206.50;;;23.64;58.22
57068;BME280;43391;47.448;18.904;2022-08-19T04:35:41;99214.25;;;23.65;58.34
57068;BME280;43391;47.448;18.904;2022-08-19T04:38:07;99211.59;;;23.65;58.53
57068;BME280;43391;47.448;18.904;2022-08-19T04:40:33;99207.97;;;23.66;58.27
57068;BME280;43391;47.448;18.904;2022-08-19T04:43:16;99212.09;;;23.69;58.25
57068;BME280;43391;47.448;18.904;2022-08-19T04:45:45;99212.75;;;23.71;58.23
57068;BME280;43391;47.448;18.904;2022-08-19T04:48:11;99209.94;;;23.72;58.25
57068;BME280;43391;47.448;18.904;2022-08-19T04:50:38;99209.25;;;23.70;58.20
57068;BME280;43391;47.448;18.904;2022-08-19T04:53:05;99219.53;;;23.73;58.02
57068;BME280;43391;47.448;18.904;2022-08-19T04:55:30;99219.19;;;23.77;58.17
57068;BME280;43391;47.448;18.904;2022-08-19T04:57:55;99224.13;;;23.80;58.23
57068;BME280;43391;47.448;18.904;2022-08-19T05:00:21;99231.75;;;23.83;58.09
57068;BME280;43391;47.448;18.904;2022-08-19T05:02:46;99225.44;;;23.84;58.26
57068;BME280;43391;47.448;18.904;2022-08-19T05:05:11;99223.63;;;23.84;58.34
57068;BME280;43391;47.448;18.904;2022-08-19T05:07:37;99222.63;;;23.85;58.62
57068;BME280;43391;47.448;18.904;2022-08-19T05:10:04;99224.75;;;23.90;58.53
57068;BME280;43391;47.448;18.904;2022-08-19T05:12:29;99233.16;;;23.94;58.54
57068;BME280;43391;47.448;18.904;2022-08-19T05:14:55;99230.19;;;23.97;58.42
57068;BME280;43391;47.448;18.904;2022-08-19T05:17:21;99218.41;;;23.99;58.22
57068;BME280;43391;47.448;18.904;2022-08-19T05:19:47;99223.16;;;24.04;58.11
57068;BME280;43391;47.448;18.904;2022-08-19T05:22:30;99225.81;;;24.12;57.79
57068;BME280;43391;47.448;18.904;2022-08-19T05:25:04;99230.25;;;24.20;57.56
57068;BME280;43391;47.448;18.904;2022-08-19T05:27:30;99225.22;;;24.25;57.07
57068;BME280;43391;47.448;18.904;2022-08-19T05:29:56;99225.38;;;24.32;57.47
57068;BME280;43391;47.448;18.904;2022-08-19T05:32:21;99230.75;;;24.39;56.72
57068;BME280;43391;47.448;18.904;2022-08-19T05:34:48;99232.72;;;24.45;56.66
57068;BME280;43391;47.448;18.904;2022-08-19T05:37:13;99239.59;;;24.54;56.07
57068;BME280;43391;47.448;18.904;2022-08-19T05:39:39;99238.91;;;24.61;55.90
57068;BME280;43391;47.448;18.904;2022-08-19T05:42:06;99230.22;;;24.67;55.64
57068;BME280;43391;47.448;18.904;2022-08-19T05:44:32;99237.31;;;24.75;55.62
57068;BME280;43391;47.448;18.904;2022-08-19T05:47:15;99236.25;;;24.84;55.43
57068;BME280;43391;47.448;18.904;2022-08-19T05:49:41;99233.34;;;24.94;54.50
57068;BME280;43391;47.448;18.904;2022-08-19T05:52:09;99234.91;;;25.03;55.16
57068;BME280;43391;47.448;18.904;2022-08-19T05:54:36;99229.06;;;25.08;54.11
57068;BME280;43391;47.448;18.904;2022-08-19T05:57:02;99231.81;;;25.15;53.91
57068;BME280;43391;47.448;18.904;2022-08-19T05:59:28;99234.56;;;25.21;54.15
57068;BME280;43391;47.448;18.904;2022-08-19T06:01:53;99230.00;;;25.30;54.31
57068;BME280;43391;47.448;18.904;2022-08-19T06:04:22;99227.44;;;25.37;53.63
57068;BME280;43391;47.448;18.904;2022-08-19T06:06:48;99223.84;;;25.45;53.31
57068;BME280;43391;47.448;18.904;2022-08-19T06:09:15;99218.81;;;25.50;52.93
57068;BME280;43391;47.448;18.904;2022-08-19T06:11:47;99224.03;;;25.58;52.75
57068;BME280;43391;47.448;18.904;2022-08-19T06:14:17;99218.63;;;25.67;52.46
57068;BME280;43391;47.448;18.904;2022-08-19T06:16:43;99227.31;;;25.76;52.43
57068;BME280;43391;47.448;18.904;2022-08-19T06:19:14;99213.72;;;25.85;51.85
57068;BME280;43391;47.448;18.904;2022-08-19T06:21:41;99212.59;;;25.95;50.89
57068;BME280;43391;47.448;18.904;2022-08-19T06:24:08;99213.06;;;25.98;50.87
57068;BME280;43391;47.448;18.904;2022-08-19T06:26:35;99210.47;;;26.05;51.19
57068;BME280;43391;47.448;18.904;2022-08-19T06:29:01;99209.34;;;26.14;51.12
57068;BME280;43391;47.448;18.904;2022-08-19T06:31:27;99204.38;;;26.26;50.54
57068;BME280;43391;47.448;18.904;2022-08-19T06:33:53;99198.72;;;26.36;50.02
57068;BME280;43391;47.448;18.904;2022-08-19T06:36:23;99198.41;;;26.46;49.84
57068;BME280;43391;47.448;18.904;2022-08-19T06:38:59;99195.19;;;26.51;49.67
57068;BME280;43391;47.448;18.904;2022-08-19T06:41:25;99198.09;;;26.56;49.34
57068;BME280;43391;47.448;18.904;2022-08-19T06:43:50;99201.63;;;26.63;49.29
57068;BME280;43391;47.448;18.904;2022-08-19T06:46:16;99205.78;;;26.73;49.58
57068;BME280;43391;47.448;18.904;2022-08-19T06:48:43;99211.59;;;26.83;49.58
57068;BME280;43391;47.448;18.904;2022-08-19T06:51:08;99209.38;;;26.87;48.51
57068;BME280;43391;47.448;18.904;2022-08-19T06:53:34;99219.06;;;26.95;48.88
57068;BME280;43391;47.448;18.904;2022-08-19T06:55:59;99235.34;;;27.06;48.39
57068;BME280;43391;47.448;18.904;2022-08-19T06:58:30;99243.81;;;27.17;48.44
57068;BME280;43391;47.448;18.904;2022-08-19T07:00:58;99244.84;;;27.23;47.47
57068;BME280;43391;47.448;18.904;2022-08-19T07:03:26;99245.50;;;27.25;47.74
57068;BME280;43391;47.448;18.904;2022-08-19T07:05:51;99247.19;;;27.32;48.13
57068;BME280;43391;47.448;18.904;2022-08-19T07:08:17;99246.59;;;27.37;47.61
57068;BME280;43391;47.448;18.904;2022-08-19T07:10:43;99253.78;;;27.43;47.52
57068;BME280;43391;47.448;18.904;2022-08-19T07:13:09;99251.41;;;27.55;47.82
57068;BME280;43391;47.448;18.904;2022-08-19T07:15:35;99251.72;;;27.74;47.54
57068;BME280;43391;47.448;18.904;2022-08-19T07:18:01;99260.56;;;27.81;46.13
57068;BME280;43391;47.448;18.904;2022-08-19T07:20:26;99256.25;;;27.80;46.74
57068;BME280;43391;47.448;18.904;2022-08-19T07:22:52;99261.63;;;27.87;46.13
57068;BME280;43391;47.448;18.904;2022-08-19T07:25:17;99255.72;;;27.98;46.59
57068;BME280;43391;47.448;18.904;2022-08-19T07:27:43;99257.81;;;28.17;46.80
57068;BME280;43391;47.448;18.904;2022-08-19T07:30:09;99248.81;;;28.31;45.71
57068;BME280;43391;47.448;18.904;2022-08-19T07:32:38;99254.16;;;28.38;45.56
57068;BME280;43391;47.448;18.904;2022-08-19T07:35:04;99251.94;;;28.48;45.28
57068;BME280;43391;47.448;18.904;2022-08-19T07:37:31;99253.38;;;28.58;45.16
57068;BME280;43391;47.448;18.904;2022-08-19T07:39:56;99243.13;;;28.68;44.56
57068;BME280;43391;47.448;18.904;2022-08-19T07:42:21;99251.13;;;28.82;44.70
57068;BME280;43391;47.448;18.904;2022-08-19T07:44:47;99237.16;;;29.00;44.17
57068;BME280;43391;47.448;18.904;2022-08-19T07:47:12;99249.91;;;29.11;42.72
57068;BME280;43391;47.448;18.904;2022-08-19T07:49:40;99250.50;;;29.20;42.58
57068;BME280;43391;47.448;18.904;2022-08-19T07:52:06;99251.28;;;29.27;43.36
57068;BME280;43391;47.448;18.904;2022-08-19T07:54:32;99251.66;;;29.38;42.04
57068;BME280;43391;47.448;18.904;2022-08-19T07:57:01;99263.19;;;29.38;42.05
57068;BME280;43391;47.448;18.904;2022-08-19T07:59:26;99261.75;;;29.42;42.52
57068;BME280;43391;47.448;18.904;2022-08-19T08:01:54;99263.16;;;29.52;41.52
57068;BME280;43391;47.448;18.904;2022-08-19T08:04:19;99261.13;;;29.54;41.62
57068;BME280;43391;47.448;18.904;2022-08-19T08:07:03;99261.91;;;29.61;41.44
57068;BME280;43391;47.448;18.904;2022-08-19T08:10:05;99260.44;;;29.72;41.01
57068;BME280;43391;47.448;18.904;2022-08-19T08:12:35;99260.81;;;29.82;40.66
57068;BME280;43391;47.448;18.904;2022-08-19T08:15:02;99254.41;;;29.90;40.07
57068;BME280;43391;47.448;18.904;2022-08-19T08:17:29;99264.06;;;29.91;40.56
57068;BME280;43391;47.448;18.904;2022-08-19T08:19:55;99259.69;;;29.97;40.44
57068;BME280;43391;47.448;18.904;2022-08-19T08:22:21;99259.44;;;30.05;40.39
57068;BME280;43391;47.448;18.904;2022-08-19T08:25:09;99256.13;;;30.17;39.89
57068;BME280;43391;47.448;18.904;2022-08-19T08:27:36;99253.97;;;30.32;39.48
57068;BME280;43391;47.448;18.904;2022-08-19T08:30:02;99256.31;;;30.47;37.99
57068;BME280;43391;47.448;18.904;2022-08-19T08:32:27;99248.00;;;30.62;36.77
57068;BME280;43391;47.448;18.904;2022-08-19T08:34:53;99239.28;;;30.67;36.84
57068;BME280;43391;47.448;18.904;2022-08-19T08:37:19;99243.97;;;30.79;37.76
57068;BME280;43391;47.448;18.904;2022-08-19T08:39:44;99225.81;;;30.81;37.20
57068;BME280;43391;47.448;18.904;2022-08-19T08:42:16;99221.84;;;30.90;36.00
57068;BME280;43391;47.448;18.904;2022-08-19T08:44:49;99224.00;;;31.00;35.49
57068;BME280;43391;47.448;18.904;2022-08-19T08:47:17;99228.81;;;31.10;35.47
57068;BME280;43391;47.448;18.904;2022-08-19T08:52:11;99250.84;;;31.37;34.78
57068;BME280;43391;47.448;18.904;2022-08-19T08:54:40;99237.19;;;31.58;34.40
57068;BME280;43391;47.448;18.904;2022-08-19T08:57:17;99223.53;;;31.78;34.12
57068;BME280;43391;47.448;18.904;2022-08-19T08:59:45;99224.66;;;31.89;33.96
57068;BME280;43391;47.448;18.904;2022-08-19T09:02:15;99225.53;;;32.01;34.17
57068;BME280;43391;47.448;18.904;2022-08-19T09:04:41;99225.19;;;32.10;33.40
57068;BME280;43391;47.448;18.904;2022-08-19T09:09:48;99225.66;;;32.18;33.46
57068;BME280;43391;47.448;18.904;2022-08-19T09:14:48;99222.97;;;32.49;33.29
57068;BME280;43391;47.448;18.904;2022-08-19T09:17:15;99220.63;;;32.53;32.81
57068;BME280;43391;47.448;18.904;2022-08-19T09:20:16;99215.50;;;32.63;33.17
57068;BME280;43391;47.448;18.904;2022-08-19T09:22:34;99197.38;;;32.70;32.95
57068;BME280;43391;47.448;18.904;2022-08-19T09:25:00;99207.56;;;32.80;31.43
57068;BME280;43391;47.448;18.904;2022-08-19T09:27:26;99205.13;;;32.79;32.02
57068;BME280;43391;47.448;18.904;2022-08-19T09:29:52;99207.09;;;32.83;33.00
57068;BME280;43391;47.448;18.904;2022-08-19T09:32:19;99205.44;;;32.94;33.01
57068;BME280;43391;47.448;18.904;2022-08-19T09:34:44;99207.22;;;33.00;32.92
57068;BME280;43391;47.448;18.904;2022-08-19T09:37:10;99208.63;;;33.03;31.54
57068;BME280;43391;47.448;18.904;2022-08-19T09:39:35;99202.31;;;32.97;31.90
57068;BME280;43391;47.448;18.904;2022-08-19T09:42:02;99202.44;;;32.91;31.38
57068;BME280;43391;47.448;18.904;2022-08-19T09:44:28;99197.97;;;32.84;32.11
57068;BME280;43391;47.448;18.904;2022-08-19T09:46:53;99191.56;;;32.85;31.95
57068;BME280;43391;47.448;18.904;2022-08-19T09:49:19;99191.19;;;32.94;32.56
57068;BME280;43391;47.448;18.904;2022-08-19T09:51:49;99184.53;;;32.96;32.27
57068;BME280;43391;47.448;18.904;2022-08-19T09:54:14;99184.53;;;32.96;32.07
57068;BME280;43391;47.448;18.904;2022-08-19T09:56:39;99185.59;;;32.95;32.10
57068;BME280;43391;47.448;18.904;2022-08-19T09:59:05;99180.13;;;33.02;32.08
57068;BME280;43391;47.448;18.904;2022-08-19T10:01:30;99191.22;;;33.06;31.96
57068;BME280;43391;47.448;18.904;2022-08-19T10:03:57;99192.47;;;33.15;32.03
57068;BME280;43391;47.448;18.904;2022-08-19T10:06:24;99185.19;;;33.27;31.89
57068;BME280;43391;47.448;18.904;2022-08-19T10:08:50;99182.47;;;33.39;32.49
57068;BME280;43391;47.448;18.904;2022-08-19T10:11:16;99179.06;;;33.56;31.54
57068;BME280;43391;47.448;18.904;2022-08-19T10:13:43;99171.50;;;33.70;31.16
57068;BME280;43391;47.448;18.904;2022-08-19T10:16:10;99176.59;;;33.84;30.53
57068;BME280;43391;47.448;18.904;2022-08-19T10:18:36;99175.06;;;33.88;30.27
57068;BME280;43391;47.448;18.904;2022-08-19T10:21:08;99172.78;;;33.97;31.18
57068;BME280;43391;47.448;18.904;2022-08-19T10:23:35;99172.28;;;34.00;30.08
57068;BME280;43391;47.448;18.904;2022-08-19T10:26:02;99169.75;;;33.93;30.85
57068;BME280;43391;47.448;18.904;2022-08-19T10:28:30;99163.22;;;33.89;30.93
57068;BME280;43391;47.448;18.904;2022-08-19T10:30:55;99173.59;;;33.97;30.46
57068;BME280;43391;47.448;18.904;2022-08-19T10:33:21;99173.78;;;34.08;30.68
57068;BME280;43391;47.448;18.904;2022-08-19T10:35:46;99172.31;;;34.17;29.36
57068;BME280;43391;47.448;18.904;2022-08-19T10:38:11;99172.09;;;34.18;30.01
57068;BME280;43391;47.448;18.904;2022-08-19T10:40:37;99169.06;;;34.32;29.87
57068;BME280;43391;47.448;18.904;2022-08-19T10:43:02;99170.59;;;34.45;29.13
57068;BME280;43391;47.448;18.904;2022-08-19T10:45:27;99172.97;;;34.58;28.83
57068;BME280;43391;47.448;18.904;2022-08-19T10:47:52;99162.44;;;34.74;29.12
57068;BME280;43391;47.448;18.904;2022-08-19T10:50:18;99174.72;;;34.87;29.15
57068;BME280;43391;47.448;18.904;2022-08-19T10:53:05;99171.81;;;35.11;28.44
57068;BME280;43391;47.448;18.904;2022-08-19T10:55:33;99173.53;;;35.17;28.25
57068;BME280;43391;47.448;18.904;2022-08-19T10:58:18;99173.31;;;35.24;27.77
57068;BME280;43391;47.448;18.904;2022-08-19T11:00:57;99168.97;;;35.23;27.39
57068;BME280;43391;47.448;18.904;2022-08-19T11:03:23;99163.94;;;35.32;27.63
57068;BME280;43391;47.448;18.904;2022-08-19T11:06:02;99169.78;;;35.46;27.20
57068;BME280;43391;47.448;18.904;2022-08-19T11:08:27;99163.72;;;35.61;27.32
57068;BME280;43391;47.448;18.904;2022-08-19T11:10:53;99163.81;;;35.66;26.62
57068;BME280;43391;47.448;18.904;2022-08-19T11:13:24;99164.94;;;35.70;26.74
57068;BME280;43391;47.448;18.904;2022-08-19T11:15:59;99172.31;;;35.80;27.20
57068;BME280;43391;47.448;18.904;2022-08-19T11:18:25;99162.47;;;35.96;26.51
57068;BME280;43391;47.448;18.904;2022-08-19T11:20:51;99162.03;;;36.10;26.08
57068;BME280;43391;47.448;18.904;2022-08-19T11:23:16;99174.41;;;36.06;25.98
57068;BME280;43391;47.448;18.904;2022-08-19T11:25:42;99173.72;;;36.15;26.43
57068;BME280;43391;47.448;18.904;2022-08-19T11:28:07;99165.94;;;36.24;26.19
57068;BME280;43391;47.448;18.904;2022-08-19T11:30:32;99174.09;;;36.29;25.35
57068;BME280;43391;47.448;18.904;2022-08-19T11:32:58;99163.75;;;36.21;25.74
57068;BME280;43391;47.448;18.904;2022-08-19T11:35:25;99170.81;;;36.22;25.55
57068;BME280;43391;47.448;18.904;2022-08-19T11:37:51;99159.72;;;36.24;25.45
57068;BME280;43391;47.448;18.904;2022-08-19T11:40:16;99168.69;;;36.29;25.67
57068;BME280;43391;47.448;18.904;2022-08-19T11:42:41;99163.03;;;36.31;26.06
57068;BME280;43391;47.448;18.904;2022-08-19T11:45:25;99164.16;;;36.35;25.71
57068;BME280;43391;47.448;18.904;2022-08-19T11:47:51;99159.81;;;36.39;25.64
57068;BME280;43391;47.448;18.904;2022-08-19T11:50:16;99157.47;;;36.48;25.81
57068;BME280;43391;47.448;18.904;2022-08-19T11:52:42;99154.78;;;36.53;25.48
57068;BME280;43391;47.448;18.904;2022-08-19T11:55:09;99140.72;;;36.51;26.10
57068;BME280;43391;47.448;18.904;2022-08-19T11:57:34;99142.88;;;36.49;25.85
57068;BME280;43391;47.448;18.904;2022-08-19T11:59:59;99147.53;;;36.59;25.62
57068;BME280;43391;47.448;18.904;2022-08-19T12:02:25;99150.16;;;36.49;25.72
57068;BME280;43391;47.448;18.904;2022-08-19T12:04:50;99158.84;;;36.13;26.33
57068;BME280;43391;47.448;18.904;2022-08-19T12:07:18;99155.53;;;36.11;26.84
57068;BME280;43391;47.448;18.904;2022-08-19T12:09:44;99156.69;;;36.15;25.93
57068;BME280;43391;47.448;18.904;2022-08-19T12:12:09;99157.19;;;36.12;26.20
57068;BME280;43391;47.448;18.904;2022-08-19T12:14:34;99157.56;;;36.21;26.55
57068;BME280;43391;47.448;18.904;2022-08-19T12:17:00;99156.84;;;36.36;26.11
57068;BME280;43391;47.448;18.904;2022-08-19T12:19:26;99157.84;;;36.62;25.34
57068;BME280;43391;47.448;18.904;2022-08-19T12:21:54;99159.56;;;36.79;25.80
57068;BME280;43391;47.448;18.904;2022-08-19T12:24:24;99150.03;;;36.66;25.47
57068;BME280;43391;47.448;18.904;2022-08-19T12:26:50;99149.38;;;36.48;25.60
57068;BME280;43391;47.448;18.904;2022-08-19T12:30:39;99151.97;;;36.33;25.83
57068;BME280;43391;47.448;18.904;2022-08-19T12:33:05;99148.16;;;36.28;25.57
57068;BME280;43391;47.448;18.904;2022-08-19T12:35:30;99137.66;;;36.32;26.25
57068;BME280;43391;47.448;18.904;2022-08-19T12:37:55;99131.69;;;36.30;25.57
57068;BME280;43391;47.448;18.904;2022-08-19T12:40:21;99131.34;;;36.21;25.83
57068;BME280;43391;47.448;18.904;2022-08-19T12:42:46;99130.63;;;36.31;26.47
57068;BME280;43391;47.448;18.904;2022-08-19T12:45:12;99128.22;;;36.35;25.33
57068;BME280;43391;47.448;18.904;2022-08-19T12:47:38;99123.69;;;36.46;25.52
57068;BME280;43391;47.448;18.904;2022-08-19T12:50:04;99110.94;;;36.41;25.62
57068;BME280;43391;47.448;18.904;2022-08-19T12:52:31;99116.44;;;36.56;25.51
57068;BME280;43391;47.448;18.904;2022-08-19T12:54:57;99127.69;;;36.91;24.27
57068;BME280;43391;47.448;18.904;2022-08-19T12:57:24;99126.09;;;36.90;24.53
57068;BME280;43391;47.448;18.904;2022-08-19T12:59:51;99126.75;;;37.23;24.32
57068;BME280;43391;47.448;18.904;2022-08-19T13:02:18;99112.97;;;37.35;26.14